createdAt,value
2018-03-16T00:03:42.656Z,9.23
2018-03-16T00:06:10.444Z,11.60
2018-03-16T00:08:38.155Z,9.47
2018-03-16T00:11:05.881Z,9.37
2018-03-16T00:13:33.649Z,7.77
2018-03-16T00:16:01.414Z,10.40
2018-03-16T00:18:29.187Z,11.10
2018-03-16T00:20:56.936Z,10.10
2018-03-16T00:23:24.645Z,10.43
2018-03-16T00:25:52.388Z,7.10
2018-03-16T00:28:20.098Z,7.67
2018-03-16T00:30:47.839Z,7.03
2018-03-16T00:33:15.532Z,7.53
2018-03-16T00:35:43.217Z,8.03
2018-03-16T00:38:10.942Z,8.30
2018-03-16T00:40:38.670Z,9.93
2018-03-16T00:43:06.399Z,11.47
2018-03-16T00:45:34.198Z,7.53
2018-03-16T00:48:01.939Z,8.90
2018-03-16T00:50:29.685Z,11.53
2018-03-16T00:52:57.419Z,10.67
2018-03-16T00:55:25.097Z,10.43
2018-03-16T00:57:52.830Z,10.20
2018-03-16T01:00:20.582Z,10.20
2018-03-16T01:02:48.317Z,8.63
2018-03-16T01:05:16.011Z,10.63
2018-03-16T01:07:43.740Z,8.47
2018-03-16T01:10:11.431Z,10.20
2018-03-16T01:12:39.170Z,9.17
2018-03-16T01:15:06.911Z,10.30
2018-03-16T01:17:34.646Z,9.30
2018-03-16T01:20:02.342Z,8.83
2018-03-16T01:22:30.136Z,8.47
2018-03-16T01:24:57.836Z,7.30
2018-03-16T01:27:25.613Z,10.70
2018-03-16T01:29:53.344Z,8.53
2018-03-16T01:32:21.067Z,8.13
2018-03-16T01:34:48.799Z,10.23
2018-03-16T01:37:16.501Z,9.60
2018-03-16T01:39:44.236Z,8.77
2018-03-16T01:42:12.023Z,10.20
2018-03-16T01:44:39.765Z,10.23
2018-03-16T01:47:07.487Z,7.97
2018-03-16T01:49:35.236Z,9.70
2018-03-16T01:52:02.988Z,10.20
2018-03-16T01:54:30.727Z,11.27
2018-03-16T01:56:58.444Z,7.93
2018-03-16T01:59:26.140Z,11.80
2018-03-16T02:01:53.870Z,9.13
2018-03-16T02:04:21.562Z,10.13
2018-03-16T02:06:49.291Z,11.47
2018-03-16T02:09:16.986Z,9.13
2018-03-16T02:11:44.715Z,12.40
2018-03-16T02:14:12.403Z,10.97
2018-03-16T02:16:40.136Z,8.77
2018-03-16T02:19:07.835Z,9.40
2018-03-16T02:21:35.553Z,10.93
2018-03-16T02:24:03.299Z,10.83
2018-03-16T02:26:31.039Z,8.63
2018-03-16T02:28:58.813Z,10.23
2018-03-16T02:31:26.514Z,9.73
2018-03-16T02:33:54.311Z,10.83
2018-03-16T02:36:22.051Z,7.13
2018-03-16T02:38:49.785Z,8.00
2018-03-16T02:41:17.478Z,10.17
2018-03-16T02:43:45.200Z,7.40
2018-03-16T02:46:12.927Z,9.50
2018-03-16T02:48:40.657Z,7.57
2018-03-16T02:51:08.349Z,8.13
2018-03-16T02:53:36.073Z,7.60
2018-03-16T02:56:03.769Z,7.90
2018-03-16T02:58:31.557Z,8.77
2018-03-16T03:00:59.251Z,8.37
2018-03-16T03:03:26.997Z,8.07
2018-03-16T03:05:54.697Z,7.10
2018-03-16T03:08:22.429Z,7.63
2018-03-16T03:10:50.117Z,9.07
2018-03-16T03:13:17.854Z,8.23
2018-03-16T03:15:45.550Z,7.27
2018-03-16T03:18:13.279Z,7.93
2018-03-16T03:20:40.966Z,10.10
2018-03-16T03:23:08.701Z,8.37
2018-03-16T03:25:36.385Z,6.50
2018-03-16T03:28:04.141Z,8.00
2018-03-16T03:30:31.880Z,9.03
2018-03-16T03:32:59.646Z,10.10
2018-03-16T03:35:27.387Z,8.77
2018-03-16T03:37:55.122Z,8.37
2018-03-16T03:40:22.810Z,6.47
2018-03-16T03:42:50.536Z,9.27
2018-03-16T03:45:18.261Z,7.07
2018-03-16T03:47:45.962Z,7.67
2018-03-16T03:50:13.733Z,7.30
2018-03-16T03:52:41.420Z,6.97
2018-03-16T03:55:09.151Z,6.20
2018-03-16T03:57:36.837Z,6.70
2018-03-16T04:00:04.593Z,8.53
2018-03-16T04:02:32.293Z,5.90
2018-03-16T04:05:00.022Z,7.90
2018-03-16T04:07:27.722Z,8.30
2018-03-16T04:09:55.450Z,6.83
2018-03-16T04:12:23.131Z,6.50
2018-03-16T04:14:50.940Z,5.87
2018-03-16T04:17:18.657Z,8.60
2018-03-16T04:19:46.387Z,7.23
2018-03-16T04:22:14.133Z,6.67
2018-03-16T04:24:41.863Z,8.57
2018-03-16T04:27:10.412Z,8.43
2018-03-16T04:29:38.160Z,8.07
2018-03-16T04:32:05.885Z,8.43
2018-03-16T04:34:33.621Z,7.33
2018-03-16T04:37:01.382Z,7.13
2018-03-16T04:39:29.866Z,7.43
2018-03-16T04:41:57.595Z,6.80
2018-03-16T04:44:25.266Z,6.10
2018-03-16T04:46:52.993Z,7.90
2018-03-16T04:49:20.670Z,6.63
2018-03-16T04:51:48.421Z,6.50
2018-03-16T04:54:16.143Z,5.70
2018-03-16T04:56:43.892Z,6.50
2018-03-16T04:59:11.645Z,6.40
2018-03-16T05:01:39.393Z,6.00
2018-03-16T05:04:07.075Z,4.93
2018-03-16T05:06:34.905Z,7.33
2018-03-16T05:09:02.596Z,7.10
2018-03-16T05:11:30.381Z,6.33
2018-03-16T05:13:58.088Z,7.07
2018-03-16T05:16:25.826Z,8.27
2018-03-16T05:18:53.549Z,6.67
2018-03-16T05:21:21.271Z,6.33
2018-03-16T05:23:49.017Z,6.53
2018-03-16T05:26:16.704Z,5.23
2018-03-16T05:28:44.457Z,6.73
2018-03-16T05:31:12.223Z,6.33
2018-03-16T05:33:39.980Z,5.90
2018-03-16T05:36:07.742Z,6.70
2018-03-16T05:38:35.543Z,8.20
2018-03-16T05:41:03.265Z,6.77
2018-03-16T05:43:31.060Z,7.37
2018-03-16T05:45:58.789Z,6.67
2018-03-16T05:48:26.579Z,6.50
2018-03-16T05:50:54.318Z,6.77
2018-03-16T05:53:22.073Z,6.70
2018-03-16T05:55:49.818Z,7.57
2018-03-16T05:58:17.625Z,6.43
2018-03-16T06:00:45.389Z,6.10
2018-03-16T06:03:13.140Z,5.90
2018-03-16T06:05:40.857Z,7.07
2018-03-16T06:08:09.658Z,7.10
2018-03-16T06:10:37.452Z,6.97
2018-03-16T06:13:05.196Z,4.20
2018-03-16T06:15:32.956Z,5.50
2018-03-16T06:18:00.730Z,5.83
2018-03-16T06:20:28.537Z,5.40
2018-03-16T06:22:56.303Z,4.90
2018-03-16T06:25:23.999Z,5.40
2018-03-16T06:27:51.735Z,6.63
2018-03-16T06:30:19.505Z,5.47
2018-03-16T06:32:47.268Z,4.03
2018-03-16T06:35:15.049Z,4.73
2018-03-16T06:37:42.736Z,4.80
2018-03-16T06:40:10.492Z,5.97
2018-03-16T06:42:38.201Z,5.43
2018-03-16T06:45:05.996Z,5.07
2018-03-16T06:47:33.720Z,6.33
2018-03-16T06:50:01.466Z,3.80
2018-03-16T06:52:29.195Z,4.60
2018-03-16T06:54:56.961Z,5.50
2018-03-16T06:57:24.667Z,4.17
2018-03-16T06:59:52.500Z,4.73
2018-03-16T07:02:20.257Z,5.07
2018-03-16T07:04:48.046Z,4.90
2018-03-16T07:07:15.812Z,4.40
2018-03-16T07:09:43.550Z,3.90
2018-03-16T07:12:11.268Z,4.97
2018-03-16T07:14:39.025Z,4.40
2018-03-16T07:17:06.744Z,3.33
2018-03-16T07:19:34.548Z,4.50
2018-03-16T07:22:02.272Z,4.67
2018-03-16T07:24:30.020Z,3.90
2018-03-16T07:26:57.735Z,3.57
2018-03-16T07:29:25.475Z,4.00
2018-03-16T07:31:53.235Z,4.90
2018-03-16T07:34:21.019Z,4.00
2018-03-16T07:36:48.853Z,3.00
2018-03-16T07:39:16.573Z,3.70
2018-03-16T07:41:44.320Z,2.70
2018-03-16T07:44:12.076Z,3.53
2018-03-16T07:46:39.827Z,3.23
2018-03-16T07:49:07.532Z,3.93
2018-03-16T07:51:35.322Z,3.27
2018-03-16T07:54:03.080Z,3.10
2018-03-16T07:56:30.881Z,2.40
2018-03-16T07:58:58.631Z,3.17
2018-03-16T08:01:26.405Z,3.20
2018-03-16T08:03:54.164Z,2.23
2018-03-16T08:06:21.891Z,3.37
2018-03-16T08:08:49.706Z,3.50
2018-03-16T08:11:17.430Z,3.40
2018-03-16T08:13:45.221Z,4.03
2018-03-16T08:16:12.954Z,3.37
2018-03-16T08:18:40.653Z,3.40
2018-03-16T08:21:08.419Z,4.10
2018-03-16T08:23:36.134Z,3.50
2018-03-16T08:26:03.900Z,4.27
2018-03-16T08:28:31.684Z,4.47
2018-03-16T08:30:59.458Z,4.10
2018-03-16T08:33:27.239Z,3.20
2018-03-16T08:35:54.974Z,3.73
2018-03-16T08:38:22.683Z,4.57
2018-03-16T08:40:50.491Z,4.13
2018-03-16T08:43:18.202Z,3.60
2018-03-16T08:45:45.942Z,2.90
2018-03-16T08:48:14.593Z,3.97
2018-03-16T08:50:45.899Z,3.63
2018-03-16T08:53:15.820Z,4.27
2018-03-16T08:55:44.143Z,3.10
2018-03-16T08:58:11.995Z,3.37
2018-03-16T09:00:39.740Z,3.43
2018-03-16T09:03:07.495Z,3.50
2018-03-16T09:05:35.258Z,4.40
2018-03-16T09:08:03.040Z,3.77
2018-03-16T09:10:30.800Z,3.23
2018-03-16T09:12:58.589Z,3.20
2018-03-16T09:15:26.360Z,2.70
2018-03-16T09:17:54.174Z,3.97
2018-03-16T09:20:21.924Z,3.23
2018-03-16T09:22:49.723Z,3.07
2018-03-16T09:25:17.466Z,2.90
2018-03-16T09:27:45.263Z,3.80
2018-03-16T09:30:13.037Z,3.27
2018-03-16T09:32:40.838Z,2.50
2018-03-16T09:35:08.582Z,3.23
2018-03-16T09:37:36.396Z,4.10
2018-03-16T09:40:04.237Z,3.43
2018-03-16T09:42:32.020Z,2.67
2018-03-16T09:44:59.859Z,3.30
2018-03-16T09:47:27.804Z,3.37
2018-03-16T09:50:06.549Z,3.73
2018-03-16T09:52:34.468Z,3.73
2018-03-16T09:55:13.972Z,2.60
2018-03-16T09:57:41.806Z,2.80
2018-03-16T10:00:09.732Z,3.70
2018-03-16T10:02:37.506Z,3.00
2018-03-16T10:05:05.400Z,3.03
2018-03-16T10:07:33.109Z,3.50
2018-03-16T10:10:00.872Z,2.73
2018-03-16T10:12:28.589Z,3.10
2018-03-16T10:14:56.357Z,1.87
2018-03-16T10:17:24.067Z,2.10
2018-03-16T10:19:51.817Z,3.30
2018-03-16T10:22:19.522Z,2.70
2018-03-16T10:24:47.332Z,2.50
2018-03-16T10:27:15.030Z,2.33
2018-03-16T10:29:42.782Z,2.60
2018-03-16T10:32:10.472Z,2.97
2018-03-16T10:34:38.213Z,2.67
2018-03-16T10:37:05.936Z,2.53
2018-03-16T10:39:33.677Z,2.77
2018-03-16T10:42:01.354Z,2.10
2018-03-16T10:44:29.092Z,2.43
2018-03-16T10:46:56.782Z,2.87
2018-03-16T10:49:24.501Z,3.33
2018-03-16T10:51:52.218Z,2.20
2018-03-16T10:54:19.987Z,2.37
2018-03-16T10:56:47.752Z,2.43
2018-03-16T10:59:15.485Z,3.20
2018-03-16T11:01:48.879Z,2.93
2018-03-16T11:04:16.568Z,4.00
2018-03-16T11:07:00.041Z,3.80
2018-03-16T11:09:42.636Z,2.70
2018-03-16T11:12:10.374Z,2.83
2018-03-16T11:14:38.070Z,3.17
2018-03-16T11:17:05.842Z,3.13
2018-03-16T11:19:33.568Z,2.57
2018-03-16T11:22:01.319Z,2.67
2018-03-16T11:24:29.061Z,2.23
2018-03-16T11:26:56.790Z,3.30
2018-03-16T11:29:24.504Z,3.07
2018-03-16T11:31:52.262Z,2.83
2018-03-16T11:34:19.981Z,3.27
2018-03-16T11:36:47.785Z,2.70
2018-03-16T11:39:15.544Z,3.53
2018-03-16T11:41:43.443Z,2.50
2018-03-16T11:44:11.188Z,2.90
2018-03-16T11:46:38.913Z,2.57
2018-03-16T11:49:06.725Z,3.00
2018-03-16T11:51:34.559Z,3.13
2018-03-16T11:54:02.356Z,2.20
2018-03-16T11:56:30.320Z,2.30
2018-03-16T11:58:58.205Z,2.20
2018-03-16T12:01:25.983Z,2.40
2018-03-16T12:03:53.707Z,2.37
2018-03-16T12:06:21.458Z,2.40
2018-03-16T12:08:49.278Z,1.73
2018-03-16T12:11:16.996Z,2.83
2018-03-16T12:13:44.735Z,2.07
2018-03-16T12:16:12.496Z,2.37
2018-03-16T12:18:40.261Z,2.37
2018-03-16T12:21:08.005Z,2.23
2018-03-16T12:23:35.807Z,2.63
2018-03-16T12:26:03.574Z,1.43
2018-03-16T12:28:49.374Z,1.80
2018-03-16T12:30:59.209Z,1.80
2018-03-16T12:33:26.944Z,2.30
2018-03-16T12:35:54.701Z,1.40
2018-03-16T12:38:22.552Z,2.30
2018-03-16T12:40:50.281Z,1.97
2018-03-16T12:43:18.076Z,1.53
2018-03-16T12:45:46.267Z,2.40
2018-03-16T12:48:14.037Z,2.67
2018-03-16T12:50:41.756Z,2.03
2018-03-16T12:53:09.508Z,1.97
2018-03-16T12:55:37.383Z,1.73
2018-03-16T12:58:05.290Z,2.23
2018-03-16T13:00:33.006Z,1.90
2018-03-16T13:03:00.858Z,1.80
2018-03-16T13:05:28.791Z,2.17
2018-03-16T13:07:56.535Z,1.70
2018-03-16T13:10:24.442Z,1.87
2018-03-16T13:12:52.237Z,1.73
2018-03-16T13:15:20.530Z,1.70
2018-03-16T13:17:48.680Z,1.33
2018-03-16T13:20:16.412Z,1.43
2018-03-16T13:22:44.156Z,1.43
2018-03-16T13:25:11.922Z,1.83
2018-03-16T13:27:39.602Z,1.17
2018-03-16T13:30:07.357Z,1.37
2018-03-16T13:32:35.110Z,1.30
2018-03-16T13:35:02.816Z,1.70
2018-03-16T13:37:30.561Z,1.90
2018-03-16T13:39:58.297Z,1.20
2018-03-16T13:42:26.019Z,1.50
2018-03-16T13:44:53.799Z,1.80
2018-03-16T13:47:21.641Z,1.73
2018-03-16T13:49:49.421Z,1.37
2018-03-16T13:52:17.133Z,1.33
2018-03-16T13:54:44.974Z,1.60
2018-03-16T13:57:12.709Z,1.67
2018-03-16T13:59:40.467Z,1.90
2018-03-16T14:02:08.203Z,1.60
2018-03-16T14:04:35.989Z,1.50
2018-03-16T14:07:03.857Z,1.50
2018-03-16T14:09:31.793Z,1.70
2018-03-16T14:11:59.522Z,1.67
2018-03-16T14:14:27.259Z,1.53
2018-03-16T14:16:55.028Z,1.60
2018-03-16T14:19:22.721Z,1.83
2018-03-16T14:21:50.505Z,2.50
2018-03-16T14:24:18.340Z,1.57
2018-03-16T14:26:46.216Z,1.60
2018-03-16T14:29:13.920Z,1.80
2018-03-16T14:31:41.698Z,1.60
2018-03-16T14:34:09.415Z,1.90
2018-03-16T14:36:37.184Z,2.37
2018-03-16T14:39:07.900Z,1.40
2018-03-16T14:41:35.650Z,1.60
2018-03-16T14:44:03.388Z,1.33
2018-03-16T14:46:31.109Z,1.83
2018-03-16T14:48:58.862Z,1.90
2018-03-16T14:51:26.585Z,2.17
2018-03-16T14:53:54.340Z,1.83
2018-03-16T14:56:22.241Z,1.70
2018-03-16T14:58:49.948Z,1.90
2018-03-16T15:01:17.742Z,2.30
2018-03-16T15:03:45.673Z,1.67
2018-03-16T15:06:13.431Z,1.50
2018-03-16T15:08:41.298Z,1.83
2018-03-16T15:11:09.013Z,1.77
2018-03-16T15:13:36.753Z,1.53
2018-03-16T15:16:04.471Z,1.70
2018-03-16T15:18:32.233Z,1.70
2018-03-16T15:20:59.956Z,2.00
2018-03-16T15:23:27.717Z,1.33
2018-03-16T15:25:55.409Z,1.60
2018-03-16T15:28:23.138Z,2.00
2018-03-16T15:30:50.829Z,1.60
2018-03-16T15:33:18.566Z,1.63
2018-03-16T15:35:46.250Z,1.70
2018-03-16T15:38:13.931Z,1.30
2018-03-16T15:40:41.638Z,1.20
2018-03-16T15:43:09.333Z,1.30
2018-03-16T15:45:37.075Z,1.73
2018-03-16T15:48:04.751Z,1.90
2018-03-16T15:50:32.470Z,1.73
2018-03-16T15:53:00.132Z,1.90
2018-03-16T15:55:27.870Z,1.37
2018-03-16T15:57:55.566Z,1.47
2018-03-16T16:00:23.295Z,1.47
2018-03-16T16:02:50.983Z,1.53
2018-03-16T16:05:18.703Z,1.43
2018-03-16T16:07:46.538Z,1.73
2018-03-16T16:10:14.260Z,1.13
2018-03-16T16:12:41.950Z,1.00
2018-03-16T16:15:09.708Z,1.47
2018-03-16T16:17:37.442Z,1.87
2018-03-16T16:20:05.208Z,1.90
2018-03-16T16:22:32.906Z,1.33
2018-03-16T16:25:00.638Z,1.40
2018-03-16T16:27:28.467Z,1.20
2018-03-16T16:29:56.153Z,1.60
2018-03-16T16:32:23.806Z,1.33
2018-03-16T16:34:51.526Z,0.80
2018-03-16T16:37:19.191Z,1.50
2018-03-16T16:39:47.005Z,1.33
2018-03-16T16:42:14.693Z,1.20
2018-03-16T16:44:42.464Z,1.47
2018-03-16T16:47:10.213Z,1.10
2018-03-16T16:49:37.866Z,1.20
2018-03-16T16:52:05.614Z,1.20
2018-03-16T16:54:33.275Z,1.10
2018-03-16T16:57:00.965Z,1.33
2018-03-16T16:59:28.745Z,1.40
2018-03-16T17:01:56.466Z,1.30
2018-03-16T17:04:24.196Z,1.33
2018-03-16T17:06:51.939Z,1.30
2018-03-16T17:09:19.644Z,1.33
2018-03-16T17:11:47.304Z,1.17
2018-03-16T17:14:15.023Z,1.60
2018-03-16T17:16:42.864Z,1.03
2018-03-16T17:19:10.582Z,1.30
2018-03-16T17:21:38.267Z,1.73
2018-03-16T17:24:05.969Z,1.23
2018-03-16T17:26:33.660Z,1.50
2018-03-16T17:29:01.467Z,1.60
2018-03-16T17:31:29.271Z,1.37
2018-03-16T17:33:57.015Z,1.40
2018-03-16T17:36:24.852Z,1.37
2018-03-16T17:38:52.576Z,1.30
2018-03-16T17:41:20.391Z,1.10
2018-03-16T17:43:48.196Z,1.53
2018-03-16T17:46:15.983Z,1.07
2018-03-16T17:48:43.786Z,1.60
2018-03-16T17:51:11.542Z,1.10
2018-03-16T17:53:39.275Z,1.00
2018-03-16T17:56:07.128Z,1.20
2018-03-16T17:58:34.883Z,1.30
2018-03-16T18:01:02.658Z,1.27
2018-03-16T18:03:30.427Z,1.20
2018-03-16T18:05:58.274Z,0.90
2018-03-16T18:08:25.991Z,1.20
2018-03-16T18:10:53.846Z,0.90
2018-03-16T18:13:21.809Z,0.70
2018-03-16T18:15:49.616Z,1.40
2018-03-16T18:18:17.346Z,1.00
2018-03-16T18:20:45.142Z,0.90
2018-03-16T18:23:12.875Z,1.12
2018-03-16T18:25:40.522Z,1.20
2018-03-16T18:28:08.303Z,1.17
2018-03-16T18:30:36.075Z,1.17
2018-03-16T18:33:03.897Z,1.00
2018-03-16T18:35:31.632Z,1.40
2018-03-16T18:37:59.477Z,1.50
2018-03-16T18:40:27.326Z,1.17
2018-03-16T18:42:55.169Z,0.90
2018-03-16T18:45:22.959Z,1.00
2018-03-16T18:47:50.799Z,1.20
2018-03-16T18:50:18.591Z,1.20
2018-03-16T18:52:46.505Z,0.95
2018-03-16T18:55:14.330Z,1.10
2018-03-16T18:57:42.150Z,1.00
2018-03-16T19:00:09.887Z,1.50
2018-03-16T19:02:37.714Z,0.90
2018-03-16T19:05:05.468Z,1.35
2018-03-16T19:07:33.291Z,1.45
2018-03-16T19:10:01.049Z,0.87
2018-03-16T19:12:28.866Z,1.20
2018-03-16T19:14:56.614Z,1.03
2018-03-16T19:17:24.443Z,1.10
2018-03-16T19:19:52.147Z,0.93
2018-03-16T19:22:19.993Z,1.30
2018-03-16T19:24:47.787Z,1.27
2018-03-16T19:27:15.552Z,1.33
2018-03-16T19:29:43.351Z,1.42
2018-03-16T19:32:11.181Z,0.95
2018-03-16T19:34:39.013Z,1.40
2018-03-16T19:37:06.753Z,1.15
2018-03-16T19:39:34.605Z,1.35
2018-03-16T19:42:02.460Z,1.35
2018-03-16T19:44:30.251Z,1.30
2018-03-16T19:46:57.981Z,1.55
2018-03-16T19:49:25.834Z,1.20
2018-03-16T19:51:53.678Z,1.75
2018-03-16T19:54:21.548Z,0.82
2018-03-16T19:56:49.359Z,1.12
2018-03-16T19:59:17.207Z,1.17
2018-03-16T20:01:45.034Z,1.10
2018-03-16T20:04:12.973Z,1.23
2018-03-16T20:06:40.710Z,1.55
2018-03-16T20:09:08.503Z,1.70
2018-03-16T20:11:36.254Z,1.30
2018-03-16T20:14:04.099Z,1.90
2018-03-16T20:16:31.814Z,1.70
2018-03-16T20:18:59.684Z,1.35
2018-03-16T20:21:27.393Z,1.65
2018-03-16T20:23:55.051Z,1.55
2018-03-16T20:26:22.966Z,1.33
2018-03-16T20:28:50.701Z,1.40
2018-03-16T20:31:18.604Z,1.70
2018-03-16T20:33:46.421Z,1.17
2018-03-16T20:36:14.245Z,1.50
2018-03-16T20:38:42.008Z,1.60
2018-03-16T20:41:09.818Z,1.15
2018-03-16T20:43:37.589Z,1.45
2018-03-16T20:46:05.402Z,1.48
2018-03-16T20:48:33.163Z,1.48
2018-03-16T20:51:00.987Z,0.95
2018-03-16T20:53:28.831Z,1.20
2018-03-16T20:55:56.622Z,1.90
2018-03-16T20:58:24.361Z,1.35
2018-03-16T21:00:52.224Z,1.77
2018-03-16T21:03:19.940Z,1.00
2018-03-16T21:05:47.806Z,1.30
2018-03-16T21:08:15.531Z,1.30
2018-03-16T21:10:43.379Z,1.60
2018-03-16T21:13:11.173Z,1.00
2018-03-16T21:15:39.072Z,1.33
2018-03-16T21:18:06.906Z,0.98
2018-03-16T21:20:34.682Z,1.17
2018-03-16T21:23:02.472Z,1.10
2018-03-16T21:25:30.270Z,1.40
2018-03-16T21:27:58.146Z,1.52
2018-03-16T21:30:25.865Z,1.20
2018-03-16T21:32:53.718Z,1.35
2018-03-16T21:35:21.504Z,1.60
2018-03-16T21:37:49.227Z,1.02
2018-03-16T21:40:17.046Z,1.05
2018-03-16T21:42:44.774Z,1.05
2018-03-16T21:45:12.474Z,1.30
2018-03-16T21:47:40.218Z,1.30
2018-03-16T21:50:07.938Z,1.10
2018-03-16T21:52:35.665Z,1.50
2018-03-16T21:55:03.411Z,1.55
2018-03-16T21:57:31.180Z,1.20
2018-03-16T21:59:58.906Z,1.33
2018-03-16T22:02:26.620Z,1.50
2018-03-16T22:04:54.309Z,1.85
2018-03-16T22:07:22.106Z,1.35
2018-03-16T22:09:49.760Z,1.30
2018-03-16T22:12:17.449Z,1.67
2018-03-16T22:14:45.134Z,1.20
2018-03-16T22:17:12.930Z,1.98
2018-03-16T22:19:40.656Z,1.10
2018-03-16T22:22:08.389Z,1.30
2018-03-16T22:24:36.054Z,1.23
2018-03-16T22:27:03.795Z,1.10
2018-03-16T22:29:31.474Z,1.20
2018-03-16T22:31:59.152Z,1.33
2018-03-16T22:34:26.845Z,1.37
2018-03-16T22:36:54.558Z,1.25
2018-03-16T22:39:22.289Z,1.70
2018-03-16T22:41:49.938Z,1.50
2018-03-16T22:44:17.723Z,1.40
2018-03-16T22:46:45.419Z,1.60
2018-03-16T22:49:13.142Z,1.48
2018-03-16T22:51:40.898Z,1.40
2018-03-16T22:54:08.583Z,1.73
2018-03-16T22:56:36.277Z,2.03
2018-03-16T22:59:04.000Z,1.37
2018-03-16T23:01:31.716Z,1.23
2018-03-16T23:03:59.519Z,1.45
2018-03-16T23:06:27.227Z,1.27
2018-03-16T23:08:55.001Z,1.60
2018-03-16T23:11:22.674Z,1.62
2018-03-16T23:13:50.425Z,1.12
2018-03-16T23:16:18.291Z,1.12
2018-03-16T23:18:46.027Z,1.50
2018-03-16T23:21:13.834Z,1.40
2018-03-16T23:23:41.678Z,1.70
2018-03-16T23:26:09.441Z,1.80
2018-03-16T23:28:37.234Z,1.10
2018-03-16T23:31:04.969Z,1.42
2018-03-16T23:33:32.800Z,1.00
2018-03-16T23:36:00.466Z,1.20
2018-03-16T23:38:28.265Z,0.80
2018-03-16T23:40:56.025Z,1.10
2018-03-16T23:43:23.840Z,1.48
2018-03-16T23:45:51.630Z,1.48
2018-03-16T23:48:19.400Z,1.30
2018-03-16T23:50:47.215Z,1.05
2018-03-16T23:53:14.930Z,1.30
2018-03-16T23:55:42.657Z,1.27
2018-03-16T23:58:11.144Z,1.00
